Time;durP1;ratioP1;P1;durP2;ratioP2;P2;SDS_P1;SDS_P2;PMS_P1;PMS_P2;Temp;Humidity;BMP_temperature;BMP_pressure;BME280_temperature;BME280_humidity;BME280_pressure;Samples;Min_cycle;Max_cycle;Signal;HPM_P1;HPM_P2
2020/12/17 00:01:56;;;;;;;90.20;34.07;;;5.40;99.90;;;;;;4912822;29;20254;-71
2020/12/17 00:04:25;;;;;;;88.80;34.03;;;5.40;99.90;;;;;;4908643;29;20211;-71
2020/12/17 00:06:52;;;;;;;110.73;39.10;;;5.40;99.90;;;;;;4911710;29;20587;-70
2020/12/17 00:09:19;;;;;;;103.83;37.37;;;5.40;99.90;;;;;;4909334;29;20230;-69
2020/12/17 00:11:46;;;;;;;105.60;39.13;;;5.40;99.90;;;;;;4910071;29;20215;-70
2020/12/17 00:14:13;;;;;;;100.30;37.77;;;5.40;99.90;;;;;;4907525;29;20208;-70
2020/12/17 00:16:39;;;;;;;105.27;38.07;;;5.40;99.90;;;;;;4969875;28;20322;-70
2020/12/17 00:19:08;;;;;;;106.77;41.67;;;5.40;99.90;;;;;;4991076;28;20221;-70
2020/12/17 00:21:35;;;;;;;103.17;39.90;;;5.40;99.90;;;;;;5024378;28;20299;-71
2020/12/17 00:24:01;;;;;;;96.80;37.73;;;5.40;99.90;;;;;;5070017;28;20221;-71
2020/12/17 00:26:28;;;;;;;101.43;39.50;;;5.30;99.90;;;;;;5088205;28;20207;-70
2020/12/17 00:28:56;;;;;;;108.13;41.37;;;5.40;99.90;;;;;;5084956;28;20201;-70
2020/12/17 00:31:23;;;;;;;102.23;37.40;;;5.40;99.90;;;;;;5082258;28;20568;-70
2020/12/17 00:33:50;;;;;;;92.60;36.70;;;5.40;99.90;;;;;;5090179;28;20236;-70
2020/12/17 00:36:20;;;;;;;99.80;39.33;;;5.30;99.90;;;;;;5089309;28;20235;-70
2020/12/17 00:38:48;;;;;;;101.77;38.50;;;5.40;99.90;;;;;;5069454;28;20193;-70
2020/12/17 00:41:15;;;;;;;103.10;39.27;;;5.40;99.90;;;;;;5068813;28;20209;-70
2020/12/17 00:43:42;;;;;;;103.37;39.70;;;5.30;99.90;;;;;;5043733;28;20592;-69
2020/12/17 00:46:12;;;;;;;100.60;37.53;;;5.30;99.90;;;;;;5044625;28;20298;-69
2020/12/17 00:48:39;;;;;;;97.17;38.57;;;5.30;99.90;;;;;;5036141;28;20219;-70
2020/12/17 00:51:06;;;;;;;105.90;40.17;;;5.30;99.90;;;;;;5041131;28;20210;-69
2020/12/17 00:53:32;;;;;;;104.60;40.67;;;5.30;99.90;;;;;;5021417;28;20194;-69
2020/12/17 00:55:59;;;;;;;103.90;40.93;;;5.30;99.90;;;;;;5026838;28;20323;-70
2020/12/17 00:58:26;;;;;;;96.63;38.27;;;5.30;99.90;;;;;;5022730;28;20271;-70
2020/12/17 01:00:52;;;;;;;98.40;39.07;;;5.30;99.90;;;;;;5024162;28;20220;-70
2020/12/17 01:03:20;;;;;;;100.17;36.77;;;5.30;99.90;;;;;;5017750;28;20282;-70
2020/12/17 01:05:47;;;;;;;100.13;36.17;;;5.40;99.90;;;;;;5010849;28;20203;-69
2020/12/17 01:08:13;;;;;;;98.13;35.03;;;5.40;99.90;;;;;;5020510;28;20234;-70
2020/12/17 01:10:40;;;;;;;95.43;34.83;;;5.40;99.90;;;;;;5004078;28;20285;-70
2020/12/17 01:13:06;;;;;;;100.87;36.47;;;5.40;99.90;;;;;;5008904;28;20334;-71
2020/12/17 01:15:33;;;;;;;98.10;34.77;;;5.40;99.90;;;;;;4989711;28;20298;-70
2020/12/17 01:18:00;;;;;;;95.73;34.93;;;5.40;99.90;;;;;;4972688;28;20296;-69
2020/12/17 01:20:27;;;;;;;92.10;34.63;;;5.40;99.90;;;;;;4977729;28;20199;-69
2020/12/17 01:22:54;;;;;;;92.23;34.80;;;5.40;99.90;;;;;;5028110;28;20227;-71
2020/12/17 01:25:21;;;;;;;97.67;34.03;;;5.40;99.90;;;;;;5027239;28;20241;-70
2020/12/17 01:27:48;;;;;;;97.40;34.03;;;5.40;99.90;;;;;;5028204;28;20217;-70
2020/12/17 01:30:17;;;;;;;100.90;34.73;;;5.40;99.90;;;;;;5026137;28;20200;-69
2020/12/17 01:32:43;;;;;;;96.80;33.87;;;5.50;99.90;;;;;;5029209;28;20195;-69
2020/12/17 01:35:10;;;;;;;86.13;32.20;;;5.50;99.90;;;;;;5007880;28;20204;-69
2020/12/17 01:37:37;;;;;;;89.73;32.50;;;5.50;99.90;;;;;;5002554;28;20725;-69
2020/12/17 01:40:04;;;;;;;84.67;32.20;;;5.50;99.90;;;;;;5002243;28;20216;-69
2020/12/17 01:42:31;;;;;;;91.73;33.27;;;5.50;99.90;;;;;;4970606;28;20224;-70
2020/12/17 01:44:57;;;;;;;88.30;32.13;;;5.50;99.90;;;;;;4966895;28;20213;-70
2020/12/17 01:47:34;;;;;;;86.80;32.77;;;5.50;99.90;;;;;;4969930;28;20240;-69
2020/12/17 01:50:01;;;;;;;85.57;33.57;;;5.50;99.90;;;;;;4986858;28;20216;-69
2020/12/17 01:52:28;;;;;;;92.00;33.97;;;5.50;99.90;;;;;;4988935;28;20625;-70
2020/12/17 01:54:55;;;;;;;85.23;33.07;;;5.40;99.90;;;;;;4987571;28;20282;-70
2020/12/17 01:57:22;;;;;;;90.13;33.47;;;5.50;99.90;;;;;;4983778;28;20664;-70
2020/12/17 01:59:50;;;;;;;94.83;34.87;;;5.40;99.90;;;;;;4962970;28;20205;-70
2020/12/17 02:02:17;;;;;;;92.43;33.87;;;5.40;99.90;;;;;;4969535;28;20683;-70
2020/12/17 02:04:45;;;;;;;84.00;32.60;;;5.40;99.90;;;;;;4971432;28;20234;-70
2020/12/17 02:07:12;;;;;;;96.97;34.30;;;5.40;99.90;;;;;;4981950;28;20635;-70
2020/12/17 02:09:39;;;;;;;95.17;33.57;;;5.40;99.90;;;;;;4992439;28;20671;-70
2020/12/17 02:12:07;;;;;;;94.00;32.57;;;5.50;99.90;;;;;;4992708;28;20212;-69
2020/12/17 02:14:34;;;;;;;102.57;35.23;;;5.40;99.90;;;;;;4990604;28;20222;-68
2020/12/17 02:17:01;;;;;;;93.93;33.10;;;5.40;99.90;;;;;;5011010;28;20212;-69
2020/12/17 02:19:27;;;;;;;90.60;33.77;;;5.40;99.90;;;;;;5011734;28;20212;-70
2020/12/17 02:21:55;;;;;;;105.00;36.80;;;5.40;99.90;;;;;;5021760;28;20218;-70
2020/12/17 02:24:23;;;;;;;103.87;38.23;;;5.40;99.90;;;;;;5004116;28;20293;-69
2020/12/17 02:26:50;;;;;;;112.33;38.47;;;5.40;99.90;;;;;;5031551;28;20670;-69
2020/12/17 02:29:16;;;;;;;113.27;40.97;;;5.40;99.90;;;;;;5046320;28;20201;-69
2020/12/17 02:31:43;;;;;;;115.30;41.33;;;5.40;99.90;;;;;;5053293;28;20267;-69
2020/12/17 02:34:10;;;;;;;110.23;41.27;;;5.30;99.90;;;;;;5053733;28;20235;-69
2020/12/17 02:36:37;;;;;;;112.03;41.17;;;5.40;99.90;;;;;;5031045;28;20206;-69
2020/12/17 02:39:03;;;;;;;111.60;40.33;;;5.30;99.90;;;;;;5024356;28;20302;-69
2020/12/17 02:41:31;;;;;;;111.80;39.07;;;5.40;99.90;;;;;;5010435;28;20223;-69
2020/12/17 02:43:58;;;;;;;108.10;39.00;;;5.40;99.90;;;;;;5006571;28;20223;-69
2020/12/17 02:46:24;;;;;;;104.43;40.77;;;5.40;99.90;;;;;;5011926;28;20250;-70
2020/12/17 02:48:51;;;;;;;106.93;39.20;;;5.40;99.90;;;;;;5010257;28;20646;-70
2020/12/17 02:51:17;;;;;;;107.40;40.07;;;5.40;99.90;;;;;;5011398;28;20619;-70
2020/12/17 02:53:44;;;;;;;103.63;38.07;;;5.40;99.90;;;;;;4996312;28;20214;-70
2020/12/17 02:56:16;;;;;;;106.67;37.90;;;5.40;99.90;;;;;;5047114;28;20251;-70
2020/12/17 02:58:48;;;;;;;95.67;36.40;;;5.50;99.90;;;;;;5049086;28;20628;-70
2020/12/17 03:01:15;;;;;;;103.47;36.33;;;5.50;99.90;;;;;;5051085;28;20749;-69
2020/12/17 03:03:41;;;;;;;96.60;36.33;;;5.50;99.90;;;;;;5050939;28;20219;-70
2020/12/17 03:06:08;;;;;;;96.07;35.50;;;5.50;99.90;;;;;;5050293;28;20214;-70
2020/12/17 03:08:35;;;;;;;95.70;35.40;;;5.50;99.90;;;;;;5104062;28;20694;-69
2020/12/17 03:11:01;;;;;;;97.23;34.63;;;5.50;99.90;;;;;;5110943;28;20386;-70
2020/12/17 03:13:28;;;;;;;92.67;35.20;;;5.60;99.90;;;;;;5109284;28;20205;-69
2020/12/17 03:15:56;;;;;;;95.80;34.80;;;5.50;99.90;;;;;;5110802;28;20234;-70
2020/12/17 03:18:22;;;;;;;89.50;34.57;;;5.60;99.90;;;;;;5110946;28;20216;-69
2020/12/17 03:20:49;;;;;;;89.63;33.23;;;5.60;99.90;;;;;;5111424;28;20632;-69
2020/12/17 03:23:15;;;;;;;95.33;33.67;;;5.50;99.90;;;;;;5070120;28;20316;-69
2020/12/17 03:25:42;;;;;;;80.53;31.57;;;5.50;99.90;;;;;;5069987;28;20220;-69
2020/12/17 03:28:09;;;;;;;85.67;31.10;;;5.60;99.90;;;;;;5052278;28;20369;-70
2020/12/17 03:30:35;;;;;;;78.87;32.27;;;5.50;99.90;;;;;;5043301;28;20206;-70
2020/12/17 03:33:03;;;;;;;89.90;32.30;;;5.50;99.90;;;;;;5050001;28;20362;-70
2020/12/17 03:35:29;;;;;;;93.90;34.00;;;5.50;99.90;;;;;;5049940;28;20199;-70
2020/12/17 03:37:58;;;;;;;94.67;35.50;;;5.50;99.90;;;;;;5046391;28;20212;-70
2020/12/17 03:40:25;;;;;;;103.50;37.80;;;5.40;99.90;;;;;;5049156;28;20210;-70
2020/12/17 03:42:52;;;;;;;99.47;36.57;;;5.50;99.90;;;;;;5050701;28;20328;-70
2020/12/17 03:45:18;;;;;;;96.20;37.17;;;5.50;99.90;;;;;;5045603;28;20203;-71
2020/12/17 03:47:45;;;;;;;100.93;37.97;;;5.40;99.90;;;;;;5050514;28;20665;-70
2020/12/17 03:50:13;;;;;;;106.10;39.30;;;5.40;99.90;;;;;;5048818;28;20207;-70
2020/12/17 03:52:39;;;;;;;94.43;37.43;;;5.40;99.90;;;;;;5045920;28;20191;-70
2020/12/17 03:55:07;;;;;;;95.33;35.90;;;5.40;99.90;;;;;;5068281;28;20554;-70
2020/12/17 03:57:33;;;;;;;105.00;39.90;;;5.40;99.90;;;;;;5074699;28;20193;-70
2020/12/17 04:00:00;;;;;;;101.93;37.83;;;5.40;99.90;;;;;;5070275;28;20661;-70
2020/12/17 04:02:26;;;;;;;92.27;36.13;;;5.30;99.90;;;;;;5072340;28;20257;-70
2020/12/17 04:04:53;;;;;;;90.90;33.83;;;5.40;99.90;;;;;;5072006;28;20249;-70
2020/12/17 04:07:20;;;;;;;86.17;32.83;;;5.40;99.90;;;;;;5072617;28;20256;-70
2020/12/17 04:09:47;;;;;;;96.73;37.17;;;5.40;99.90;;;;;;5071807;28;20198;-70
2020/12/17 04:12:14;;;;;;;84.60;33.90;;;5.30;99.90;;;;;;5050141;28;20222;-70
2020/12/17 04:14:41;;;;;;;95.43;33.77;;;5.30;99.90;;;;;;5047383;28;20297;-70
2020/12/17 04:17:08;;;;;;;87.27;33.80;;;5.30;99.90;;;;;;5050199;28;20204;-70
2020/12/17 04:19:35;;;;;;;101.47;37.23;;;5.40;99.90;;;;;;5048909;28;20298;-70
2020/12/17 04:22:01;;;;;;;89.67;35.93;;;5.30;99.90;;;;;;5049181;28;20203;-69
2020/12/17 04:24:30;;;;;;;102.67;38.83;;;5.30;99.90;;;;;;5048537;28;20234;-69
2020/12/17 04:26:57;;;;;;;93.27;37.43;;;5.30;99.90;;;;;;5048672;28;20238;-70
2020/12/17 04:29:23;;;;;;;95.90;38.57;;;5.20;99.90;;;;;;5046986;28;20207;-70
2020/12/17 04:31:50;;;;;;;92.77;36.43;;;5.20;99.90;;;;;;5050032;28;20304;-70
2020/12/17 04:34:16;;;;;;;87.60;35.07;;;5.20;99.90;;;;;;5048507;28;20268;-70
2020/12/17 04:36:43;;;;;;;81.13;34.03;;;5.20;99.90;;;;;;5009553;28;20219;-70
2020/12/17 04:39:10;;;;;;;89.50;36.03;;;5.20;99.90;;;;;;4976970;28;20258;-70
2020/12/17 04:41:38;;;;;;;91.33;36.80;;;5.20;99.90;;;;;;4989311;28;20212;-69
2020/12/17 04:44:05;;;;;;;91.20;36.33;;;5.20;99.90;;;;;;5017862;28;20235;-70
2020/12/17 04:46:35;;;;;;;89.53;34.60;;;5.20;99.90;;;;;;4990239;28;20208;-70
2020/12/17 04:49:03;;;;;;;87.50;35.10;;;5.20;99.90;;;;;;4999376;28;20211;-70
2020/12/17 04:51:31;;;;;;;87.20;35.40;;;5.30;99.90;;;;;;4990166;28;20204;-69
2020/12/17 04:54:02;;;;;;;89.57;37.00;;;5.30;99.90;;;;;;4931293;29;20207;-70
2020/12/17 04:56:37;;;;;;;86.13;35.70;;;5.30;99.90;;;;;;4931094;29;20258;-69
2020/12/17 04:59:05;;;;;;;87.87;35.27;;;5.30;99.90;;;;;;4923369;29;20398;-69
2020/12/17 05:01:33;;;;;;;79.03;33.03;;;5.30;99.90;;;;;;4928198;29;20226;-69
2020/12/17 05:03:59;;;;;;;85.07;33.60;;;5.40;99.90;;;;;;4912018;29;20258;-69
2020/12/17 05:06:26;;;;;;;76.37;32.57;;;5.40;99.90;;;;;;4912292;29;20212;-69
2020/12/17 05:08:54;;;;;;;75.80;30.87;;;5.40;99.90;;;;;;4912645;29;20219;-69
2020/12/17 05:11:20;;;;;;;100.67;35.63;;;5.40;99.90;;;;;;4912491;29;20204;-70
2020/12/17 05:13:48;;;;;;;106.37;38.43;;;5.40;99.90;;;;;;4916920;29;20204;-69
2020/12/17 05:16:15;;;;;;;97.20;36.53;;;5.40;99.90;;;;;;4937352;29;20237;-69
2020/12/17 05:18:42;;;;;;;108.07;39.50;;;5.40;99.90;;;;;;4969060;28;20209;-69
2020/12/17 05:21:09;;;;;;;113.20;40.87;;;5.40;99.90;;;;;;4950206;29;20215;-69
2020/12/17 05:23:38;;;;;;;110.53;40.60;;;5.40;99.90;;;;;;4956638;28;20313;-69
2020/12/17 05:26:04;;;;;;;111.73;39.47;;;5.40;99.90;;;;;;4980882;28;20208;-69
2020/12/17 05:28:32;;;;;;;102.20;37.70;;;5.40;99.90;;;;;;4966893;28;20651;-69
2020/12/17 05:30:58;;;;;;;102.77;39.70;;;5.40;99.90;;;;;;4969965;28;20213;-69
2020/12/17 05:33:26;;;;;;;98.53;37.67;;;5.40;99.90;;;;;;4949630;29;20517;-69
2020/12/17 05:35:53;;;;;;;105.00;40.10;;;5.40;99.90;;;;;;4950404;29;20710;-69
2020/12/17 05:38:25;;;;;;;105.00;39.13;;;5.40;99.90;;;;;;4949580;28;20217;-69
2020/12/17 05:40:52;;;;;;;98.43;39.00;;;5.40;99.90;;;;;;4945530;29;20254;-69
2020/12/17 05:43:22;;;;;;;98.87;39.67;;;5.40;99.90;;;;;;4929428;29;20242;-69
2020/12/17 05:45:49;;;;;;;106.40;39.63;;;5.40;99.90;;;;;;4927271;29;20698;-69
2020/12/17 05:48:17;;;;;;;108.27;41.30;;;5.40;99.90;;;;;;4935750;29;20213;-69
2020/12/17 05:50:55;;;;;;;106.53;39.23;;;5.40;99.90;;;;;;4969665;28;20204;-69
2020/12/17 05:53:24;;;;;;;97.57;38.20;;;5.40;99.90;;;;;;5007577;28;20729;-68
2020/12/17 05:55:59;;;;;;;101.60;38.70;;;5.40;99.90;;;;;;5022813;28;20203;-70
2020/12/17 05:58:36;;;;;;;101.33;38.97;;;5.40;99.90;;;;;;5026815;28;20297;-69
2020/12/17 06:01:08;;;;;;;99.70;38.10;;;5.40;99.90;;;;;;5007813;28;20211;-68
2020/12/17 06:03:34;;;;;;;96.93;38.47;;;5.40;99.90;;;;;;5010332;28;20643;-68
2020/12/17 06:06:06;;;;;;;95.40;37.87;;;5.40;99.90;;;;;;5030457;28;20574;-68
2020/12/17 06:08:35;;;;;;;100.93;39.97;;;5.40;99.90;;;;;;5037523;28;20748;-68
2020/12/17 06:11:06;;;;;;;98.20;40.40;;;5.40;99.90;;;;;;5026898;28;20741;-68
2020/12/17 06:13:37;;;;;;;100.33;38.57;;;5.40;99.90;;;;;;5023267;28;20208;-67
2020/12/17 06:16:05;;;;;;;102.27;38.93;;;5.40;99.90;;;;;;5027548;28;20229;-68
2020/12/17 06:18:47;;;;;;;95.40;38.40;;;5.40;99.90;;;;;;5027100;28;20211;-68
2020/12/17 06:21:18;;;;;;;91.20;37.17;;;5.40;99.90;;;;;;5033577;28;20204;-69
2020/12/17 06:23:45;;;;;;;100.70;38.97;;;5.40;99.90;;;;;;5047267;28;20230;-69
2020/12/17 06:26:12;;;;;;;106.10;41.60;;;5.40;99.90;;;;;;5047311;28;20244;-69
2020/12/17 06:28:45;;;;;;;116.17;44.40;;;5.40;99.90;;;;;;5044945;28;20214;-69
2020/12/17 06:31:15;;;;;;;118.70;46.23;;;5.40;99.90;;;;;;5052977;28;20206;-70
2020/12/17 06:33:43;;;;;;;106.20;42.07;;;5.40;99.90;;;;;;5086578;28;20194;-68
2020/12/17 06:36:16;;;;;;;103.33;42.37;;;5.40;99.90;;;;;;5088039;28;20255;-68
2020/12/17 06:38:45;;;;;;;105.93;40.47;;;5.40;99.90;;;;;;5064086;28;20305;-69
2020/12/17 06:41:19;;;;;;;120.50;42.30;;;5.40;99.90;;;;;;5047134;28;20551;-69
2020/12/17 06:43:46;;;;;;;108.10;40.00;;;5.40;99.90;;;;;;5025147;28;20297;-68
2020/12/17 06:46:36;;;;;;;110.37;39.53;;;5.40;99.90;;;;;;4974315;28;20612;-69
2020/12/17 06:49:06;;;;;;;89.87;35.70;;;5.40;99.90;;;;;;4980315;28;20217;-69
2020/12/17 06:51:35;;;;;;;105.30;37.20;;;5.50;99.90;;;;;;4985573;28;20210;-69
2020/12/17 06:54:07;;;;;;;108.83;35.97;;;5.40;99.90;;;;;;4984023;28;20212;-69
2020/12/17 06:56:37;;;;;;;149.03;40.47;;;5.40;99.90;;;;;;4977714;28;20222;-69
2020/12/17 06:59:18;;;;;;;156.20;43.40;;;5.40;99.90;;;;;;4985319;28;20572;-71
2020/12/17 07:01:46;;;;;;;146.57;44.47;;;5.40;99.90;;;;;;4991669;28;20220;-69
2020/12/17 07:04:33;;;;;;;160.77;44.37;;;5.40;99.90;;;;;;4999073;28;20266;-69
2020/12/17 07:07:16;;;;;;;145.23;45.50;;;5.40;99.90;;;;;;4996209;28;20216;-69
2020/12/17 07:09:44;;;;;;;126.50;42.23;;;5.40;99.90;;;;;;5016948;28;20264;-68
2020/12/17 07:12:12;;;;;;;121.97;44.23;;;5.30;99.90;;;;;;5030097;28;20261;-69
2020/12/17 07:14:41;;;;;;;121.60;45.13;;;5.30;99.90;;;;;;5029208;28;20570;-68
2020/12/17 07:17:09;;;;;;;121.17;45.60;;;5.30;99.90;;;;;;5059221;28;20249;-68
2020/12/17 07:19:40;;;;;;;115.60;44.23;;;5.30;99.90;;;;;;5070423;28;20272;-68
2020/12/17 07:22:11;;;;;;;108.10;42.30;;;5.30;99.90;;;;;;5070874;28;20258;-68
2020/12/17 07:24:42;;;;;;;116.77;43.47;;;5.30;99.90;;;;;;5030111;28;20223;-68
2020/12/17 07:27:14;;;;;;;109.60;44.20;;;5.30;99.90;;;;;;5031113;28;20264;-68
2020/12/17 07:29:43;;;;;;;117.40;43.97;;;5.30;99.90;;;;;;5028578;28;20574;-68
2020/12/17 07:32:37;;;;;;;128.00;47.83;;;5.30;99.90;;;;;;5025424;28;20196;-68
2020/12/17 07:35:17;;;;;;;126.33;47.27;;;5.30;99.90;;;;;;4933057;29;20206;-68
2020/12/17 07:37:46;;;;;;;115.93;46.37;;;5.40;99.90;;;;;;4933477;29;20210;-68
2020/12/17 07:40:30;;;;;;;123.53;48.73;;;5.40;99.90;;;;;;4932346;29;20237;-68
2020/12/17 07:43:08;;;;;;;117.63;45.63;;;5.40;99.90;;;;;;4929924;29;21156;-68
2020/12/17 07:45:43;;;;;;;119.53;46.93;;;5.40;99.90;;;;;;4929383;29;20218;-68
2020/12/17 07:48:33;;;;;;;120.30;47.67;;;5.40;99.90;;;;;;4925176;29;20230;-68
2020/12/17 07:50:59;;;;;;;116.23;47.00;;;5.40;99.90;;;;;;4933171;29;20214;-68
2020/12/17 07:53:27;;;;;;;115.80;46.83;;;5.40;99.90;;;;;;4933172;29;20211;-68
2020/12/17 07:55:54;;;;;;;118.07;46.70;;;5.50;99.90;;;;;;4953385;28;20646;-69
2020/12/17 07:58:22;;;;;;;117.53;46.27;;;5.50;99.90;;;;;;4957253;28;20235;-68
2020/12/17 08:00:48;;;;;;;118.27;48.93;;;5.50;99.90;;;;;;4965897;28;20676;-68
2020/12/17 08:03:18;;;;;;;119.97;49.83;;;5.50;99.90;;;;;;4916463;29;21060;-69
2020/12/17 08:05:45;;;;;;;112.50;48.37;;;5.50;99.90;;;;;;4918216;29;20218;-69
2020/12/17 08:08:14;;;;;;;124.00;48.93;;;5.50;99.90;;;;;;4909788;29;20220;-69
2020/12/17 08:10:41;;;;;;;114.93;46.83;;;5.50;99.90;;;;;;4956800;28;20216;-69
2020/12/17 08:13:08;;;;;;;125.73;49.63;;;5.60;99.90;;;;;;5005387;28;20676;-69
2020/12/17 08:15:35;;;;;;;124.90;48.10;;;5.60;99.90;;;;;;4977912;28;20221;-68
2020/12/17 08:18:02;;;;;;;124.07;46.73;;;5.60;99.90;;;;;;4958651;28;20202;-68
2020/12/17 08:20:29;;;;;;;112.00;45.93;;;5.60;99.90;;;;;;4967654;28;20313;-67
2020/12/17 08:22:56;;;;;;;108.63;45.33;;;5.70;99.90;;;;;;4967503;28;20711;-69
2020/12/17 08:25:24;;;;;;;82.37;36.23;;;5.70;99.90;;;;;;4971282;28;20238;-68
2020/12/17 08:27:52;;;;;;;75.57;33.07;;;5.70;99.90;;;;;;4965598;28;20227;-68
2020/12/17 08:30:20;;;;;;;68.47;29.90;;;5.80;99.90;;;;;;4964112;28;20586;-69
2020/12/17 08:32:52;;;;;;;67.60;30.47;;;4.40;99.90;;;;;;4924814;29;20196;-68
2020/12/17 08:35:23;;;;;;;64.87;27.80;;;5.70;99.90;;;;;;4927031;29;20217;-69
2020/12/17 08:37:53;;;;;;;57.60;25.73;;;5.60;99.90;;;;;;4907831;29;20326;-69
2020/12/17 08:40:24;;;;;;;58.73;24.90;;;5.60;99.90;;;;;;4868471;29;20217;-68
2020/12/17 08:42:56;;;;;;;56.63;24.27;;;5.60;99.90;;;;;;4872114;29;20240;-69
2020/12/17 08:45:28;;;;;;;57.10;23.43;;;5.60;99.90;;;;;;4868717;29;20347;-69
2020/12/17 08:47:59;;;;;;;52.93;24.03;;;5.60;99.90;;;;;;4831486;29;20211;-69
2020/12/17 08:50:26;;;;;;;49.37;22.30;;;5.60;99.90;;;;;;4837254;29;20218;-70
2020/12/17 08:52:54;;;;;;;52.23;21.10;;;5.60;99.90;;;;;;4829106;29;20306;-69
2020/12/17 08:55:24;;;;;;;45.07;19.40;;;5.60;99.90;;;;;;4829295;29;20226;-69
2020/12/17 08:57:50;;;;;;;51.40;21.30;;;5.60;99.90;;;;;;4832314;29;20207;-70
2020/12/17 09:00:19;;;;;;;53.03;22.93;;;5.70;99.90;;;;;;4832023;29;20274;-70
2020/12/17 09:02:46;;;;;;;61.70;25.60;;;5.70;99.90;;;;;;4824997;29;20211;-70
2020/12/17 09:05:16;;;;;;;68.43;28.33;;;5.70;99.90;;;;;;4872414;29;20322;-70
2020/12/17 09:07:46;;;;;;;60.27;27.33;;;5.70;99.90;;;;;;4868020;29;20198;-70
2020/12/17 09:10:14;;;;;;;53.97;25.90;;;5.60;99.90;;;;;;4902205;29;20204;-69
2020/12/17 09:12:41;;;;;;;55.90;25.43;;;5.60;99.90;;;;;;4888874;29;20347;-69
2020/12/17 09:15:09;;;;;;;58.43;25.53;;;5.60;99.90;;;;;;4887543;29;20600;-70
2020/12/17 09:17:37;;;;;;;59.43;25.40;;;5.60;99.90;;;;;;4887642;29;20662;-70
2020/12/17 09:20:16;;;;;;;65.77;28.47;;;5.70;99.90;;;;;;4906455;29;20719;-69
2020/12/17 09:22:43;;;;;;;60.60;26.50;;;5.70;99.90;;;;;;4907666;29;20207;-69
2020/12/17 09:25:10;;;;;;;82.63;31.17;;;5.70;99.90;;;;;;4887779;29;20244;-69
2020/12/17 09:27:38;;;;;;;70.03;29.93;;;5.80;99.90;;;;;;4889694;29;20219;-69
2020/12/17 09:30:11;;;;;;;69.77;32.47;;;5.90;99.90;;;;;;4924611;29;20339;-69
2020/12/17 09:32:39;;;;;;;75.07;31.93;;;5.90;99.90;;;;;;4999835;28;20213;-70
2020/12/17 09:35:09;;;;;;;73.20;33.30;;;6.00;99.90;;;;;;5015590;28;20213;-70
2020/12/17 09:37:37;;;;;;;72.93;33.57;;;6.00;99.90;;;;;;5014280;28;20220;-70
2020/12/17 09:40:06;;;;;;;68.23;32.60;;;6.00;99.90;;;;;;4999620;28;20200;-70
2020/12/17 09:42:33;;;;;;;80.53;36.17;;;6.10;99.90;;;;;;5038977;28;20308;-69
2020/12/17 09:45:13;;;;;;;69.40;31.13;;;6.10;99.90;;;;;;5038875;28;20218;-70
2020/12/17 09:47:40;;;;;;;58.83;27.10;;;6.20;99.90;;;;;;5041413;28;20890;-71
2020/12/17 09:50:11;;;;;;;61.10;28.67;;;6.30;99.90;;;;;;5033789;28;20373;-70
2020/12/17 09:52:39;;;;;;;55.13;25.27;;;6.30;99.90;;;;;;5040722;28;20212;-70
2020/12/17 09:55:06;;;;;;;50.50;23.37;;;6.30;99.90;;;;;;5060783;28;20196;-70
2020/12/17 09:57:38;;;;;;;45.73;21.80;;;6.30;99.90;;;;;;5066543;28;20678;-70
2020/12/17 10:00:06;;;;;;;52.27;23.70;;;6.30;99.90;;;;;;5022172;28;20223;-70
2020/12/17 10:02:39;;;;;;;56.90;24.73;;;6.40;99.90;;;;;;5018974;28;20246;-71
2020/12/17 10:05:07;;;;;;;55.23;23.57;;;6.40;99.90;;;;;;5029976;28;20280;-70
2020/12/17 10:07:33;;;;;;;59.73;25.80;;;6.40;99.90;;;;;;5028242;28;20212;-70
2020/12/17 10:10:01;;;;;;;57.03;26.83;;;6.30;99.90;;;;;;5029479;28;20204;-69
2020/12/17 10:12:28;;;;;;;59.40;26.13;;;6.30;99.90;;;;;;5029248;28;20269;-70
2020/12/17 10:14:55;;;;;;;58.83;27.20;;;6.30;99.90;;;;;;5026612;28;20228;-73
2020/12/17 10:17:22;;;;;;;58.53;25.27;;;6.40;99.90;;;;;;4982996;28;20244;-74
2020/12/17 10:19:49;;;;;;;57.70;25.80;;;6.50;99.90;;;;;;4983296;28;20300;-73
2020/12/17 10:22:16;;;;;;;73.80;32.70;;;6.60;99.90;;;;;;4982859;28;20756;-73
2020/12/17 10:24:43;;;;;;;77.40;32.73;;;6.60;99.90;;;;;;4984754;28;21032;-73
2020/12/17 10:27:10;;;;;;;69.00;31.57;;;6.60;99.90;;;;;;4951133;28;20208;-73
2020/12/17 10:29:37;;;;;;;67.40;30.97;;;6.60;99.90;;;;;;4948048;28;20238;-73
2020/12/17 10:32:03;;;;;;;62.30;28.50;;;6.60;99.90;;;;;;4919741;29;20206;-71
2020/12/17 10:34:30;;;;;;;74.97;32.60;;;6.30;99.90;;;;;;4921386;29;20223;-71
2020/12/17 10:36:57;;;;;;;74.77;32.80;;;6.60;99.90;;;;;;4915188;29;20206;-71
2020/12/17 10:39:26;;;;;;;71.33;31.60;;;6.50;99.90;;;;;;4895699;29;20205;-71
2020/12/17 10:41:52;;;;;;;75.30;32.13;;;6.40;99.90;;;;;;4890631;29;20316;-71
2020/12/17 10:44:20;;;;;;;72.77;31.40;;;6.40;99.90;;;;;;4894665;29;20268;-71
2020/12/17 10:46:49;;;;;;;75.97;30.57;;;6.40;99.90;;;;;;4894199;29;20277;-70
2020/12/17 10:49:16;;;;;;;69.87;31.53;;;6.40;99.90;;;;;;4943252;29;20653;-71
2020/12/17 10:51:43;;;;;;;70.23;31.10;;;6.40;99.90;;;;;;4945638;29;20211;-72
2020/12/17 10:54:11;;;;;;;72.97;31.13;;;6.40;99.90;;;;;;4949759;28;20192;-71
2020/12/17 10:56:37;;;;;;;71.83;32.87;;;6.40;99.90;;;;;;4945048;29;20218;-70
2020/12/17 10:59:04;;;;;;;91.88;46.00;;;6.40;99.90;;;;;;4977566;28;20876;-71
2020/12/17 11:01:31;;;;;;;77.67;37.27;;;6.30;99.90;;;;;;4984367;28;20564;-71
2020/12/17 11:03:58;;;;;;;77.80;34.93;;;6.40;99.90;;;;;;4998457;28;20710;-70
2020/12/17 11:06:25;;;;;;;71.20;32.30;;;6.40;99.90;;;;;;5020460;28;20223;-71
2020/12/17 11:08:52;;;;;;;64.73;29.23;;;6.50;99.90;;;;;;5021344;28;20244;-71
2020/12/17 11:11:18;;;;;;;58.17;25.47;;;6.50;99.90;;;;;;5018482;28;20208;-71
2020/12/17 11:13:45;;;;;;;71.50;29.63;;;6.60;99.90;;;;;;5024069;28;20213;-70
2020/12/17 11:16:12;;;;;;;62.43;27.00;;;6.60;99.90;;;;;;5024921;28;20895;-71
2020/12/17 11:18:40;;;;;;;62.20;26.70;;;6.60;99.90;;;;;;5017786;28;20720;-71
2020/12/17 11:21:07;;;;;;;61.53;25.80;;;6.70;99.90;;;;;;5025245;28;20218;-71
2020/12/17 11:23:35;;;;;;;57.17;25.40;;;6.70;99.90;;;;;;5025843;28;20625;-71
2020/12/17 11:26:02;;;;;;;54.67;25.33;;;6.80;99.90;;;;;;5016844;28;20233;-72
2020/12/17 11:28:29;;;;;;;52.63;22.57;;;6.70;99.90;;;;;;5018006;28;20210;-71
2020/12/17 11:30:56;;;;;;;50.87;23.20;;;6.80;99.90;;;;;;5018813;28;20706;-70
2020/12/17 11:33:25;;;;;;;52.57;23.33;;;6.80;99.90;;;;;;5077217;28;20770;-70
2020/12/17 11:35:52;;;;;;;50.50;22.97;;;6.70;99.90;;;;;;5083522;28;20192;-70
2020/12/17 11:38:19;;;;;;;53.33;22.70;;;6.70;99.90;;;;;;5069101;28;20214;-70
2020/12/17 11:40:48;;;;;;;50.23;23.17;;;6.70;99.90;;;;;;5066039;28;20252;-70
2020/12/17 11:43:17;;;;;;;50.57;23.20;;;6.70;99.90;;;;;;5064627;28;20205;-70
2020/12/17 11:45:45;;;;;;;46.97;21.03;;;6.70;99.90;;;;;;5063981;28;20290;-70
2020/12/17 11:48:12;;;;;;;50.30;22.97;;;6.70;99.90;;;;;;5064698;28;20199;-71
2020/12/17 11:50:41;;;;;;;48.53;21.93;;;6.70;99.90;;;;;;5066906;28;20193;-70
2020/12/17 11:53:09;;;;;;;45.10;22.27;;;6.60;99.90;;;;;;5080690;28;20275;-71
2020/12/17 11:55:35;;;;;;;63.43;27.87;;;6.60;99.90;;;;;;5044759;28;20600;-70
2020/12/17 11:58:02;;;;;;;57.87;25.13;;;6.50;99.90;;;;;;5027423;28;20587;-71
2020/12/17 12:00:28;;;;;;;54.27;22.97;;;6.50;99.90;;;;;;5023431;28;20670;-71
2020/12/17 12:02:55;;;;;;;45.40;19.97;;;6.50;99.90;;;;;;5030672;28;20202;-70
2020/12/17 12:05:22;;;;;;;37.27;17.43;;;6.50;99.90;;;;;;5017891;28;20207;-71
2020/12/17 12:07:48;;;;;;;34.67;16.10;;;6.50;99.90;;;;;;5020174;28;20210;-70
2020/12/17 12:10:16;;;;;;;32.20;14.67;;;6.50;99.90;;;;;;5000900;28;20700;-71
2020/12/17 12:12:42;;;;;;;29.87;15.47;;;6.60;99.90;;;;;;5000049;28;20301;-70
2020/12/17 12:15:09;;;;;;;28.63;13.93;;;6.60;99.90;;;;;;4978096;28;21120;-71
2020/12/17 12:17:36;;;;;;;26.63;12.97;;;6.60;99.90;;;;;;4973169;28;20235;-71
2020/12/17 12:20:02;;;;;;;26.63;12.43;;;6.60;99.90;;;;;;4981188;28;20218;-71
2020/12/17 12:22:29;;;;;;;26.77;12.73;;;6.60;99.90;;;;;;4977483;28;20334;-71
2020/12/17 12:24:56;;;;;;;38.50;16.27;;;6.60;99.90;;;;;;4968485;28;20240;-71
2020/12/17 12:27:23;;;;;;;37.93;17.33;;;6.60;99.90;;;;;;4981834;28;20218;-71
2020/12/17 12:29:50;;;;;;;38.70;18.83;;;6.70;99.90;;;;;;4977467;28;20205;-71
2020/12/17 12:32:17;;;;;;;49.77;22.23;;;6.60;99.90;;;;;;4981499;28;20286;-71
2020/12/17 12:34:44;;;;;;;63.03;25.90;;;6.60;99.90;;;;;;4987068;28;20359;-71
2020/12/17 12:37:10;;;;;;;46.07;20.90;;;6.60;99.90;;;;;;4990649;28;20202;-70
2020/12/17 12:39:37;;;;;;;45.83;19.10;;;6.60;99.90;;;;;;4994243;28;20511;-70